Time;durP1;ratioP1;P1;durP2;ratioP2;P2;SDS_P1;SDS_P2;PMS_P1;PMS_P2;Temp;Humidity;BMP_temperature;BMP_pressure;BME280_temperature;BME280_humidity;BME280_pressure;Samples;Min_cycle;Max_cycle;Signal;HPM_P1;HPM_P2
2024/01/25 00:01:45;;;;;;;34.53;7.50;;;;;;;-144.05;71.18;56984.78;5095430;28;20145;-82
2024/01/25 00:04:11;;;;;;;30.80;7.30;;;;;;;-144.05;72.53;56989.00;5095622;28;20412;-82
2024/01/25 00:06:37;;;;;;;36.25;7.70;;;;;;;-144.05;72.12;56976.28;5095537;28;20035;-82
2024/01/25 00:09:04;;;;;;;38.88;7.20;;;;;;;-144.05;72.74;56986.91;5097448;28;20373;-81
2024/01/25 00:11:31;;;;;;;33.45;6.60;;;;;;;-144.05;72.76;56976.28;5106265;28;20035;-83
2024/01/25 00:13:58;;;;;;;49.30;7.75;;;;;;;-144.05;71.87;56978.41;5103975;28;20055;-82
2024/01/25 00:16:24;;;;;;;39.70;7.22;;;;;;;-144.05;71.18;57001.75;5102853;28;20058;-82
2024/01/25 00:18:50;;;;;;;46.33;7.13;;;;;;;-144.05;71.39;56972.03;5103500;28;20028;-83
2024/01/25 00:21:17;;;;;;;38.03;7.53;;;;;;;-144.05;71.69;56978.41;5110330;28;20100;-77
2024/01/25 00:23:43;;;;;;;34.75;6.97;;;;;;;-144.05;70.92;56974.16;5118575;28;20118;-78
2024/01/25 00:26:09;;;;;;;36.22;7.15;;;;;;;-144.05;71.08;56999.63;5124814;28;20099;-78
2024/01/25 00:28:36;;;;;;;41.03;7.03;;;;;;;-144.05;71.48;56978.41;5109605;28;20446;-79
2024/01/25 00:31:02;;;;;;;44.22;8.07;;;;;;;-144.05;70.98;57001.75;5093881;28;20067;-79
2024/01/25 00:33:28;;;;;;;37.45;7.25;;;;;;;-144.05;71.07;56967.78;5105691;28;20031;-83
2024/01/25 00:35:55;;;;;;;42.20;8.13;;;;;;;-144.05;70.83;56984.78;5098095;28;20047;-80
2024/01/25 00:38:21;;;;;;;41.85;7.28;;;;;;;-144.05;71.55;56961.41;5093901;28;20031;-80
2024/01/25 00:40:48;;;;;;;34.50;8.18;;;;;;;-144.05;71.07;56967.78;5098754;28;20035;-80
2024/01/25 00:43:15;;;;;;;44.80;7.88;;;;;;;-144.05;71.33;56980.53;5114472;28;20028;-81
2024/01/25 00:45:41;;;;;;;35.55;8.43;;;;;;;-144.05;70.71;56963.53;5130297;28;20024;-82
2024/01/25 00:48:09;;;;;;;45.80;7.88;;;;;;;-144.05;70.34;56984.78;5098848;28;20020;-79
2024/01/25 00:50:35;;;;;;;34.50;8.43;;;;;;;-144.05;70.88;56978.41;5092758;28;20077;-78
2024/01/25 00:53:02;;;;;;;31.25;6.70;;;;;;;-144.05;70.92;57001.75;5092687;28;20111;-78
2024/01/25 00:55:28;;;;;;;37.55;8.60;;;;;;;-144.05;70.50;56978.41;5100723;28;20565;-78
2024/01/25 00:57:56;;;;;;;46.33;8.63;;;;;;;-144.05;70.76;56967.78;5092311;28;20031;-79
2024/01/25 01:00:23;;;;;;;40.42;8.45;;;;;;;-144.05;70.77;57001.75;5092587;28;20103;-77
2024/01/25 01:02:49;;;;;;;32.10;7.18;;;;;;;-144.05;71.32;57016.63;5091137;28;20032;-78
2024/01/25 01:05:16;;;;;;;37.15;5.95;;;;;;;-144.05;70.64;56972.03;5091981;28;20035;-80
2024/01/25 01:07:43;;;;;;;35.97;6.93;;;;;;;-144.05;71.06;56978.41;5091578;28;20028;-80
2024/01/25 01:10:09;;;;;;;34.00;5.53;;;;;;;-144.05;71.43;56989.00;5091053;28;20075;-78
2024/01/25 01:12:36;;;;;;;34.92;7.35;;;8.90;99.90;;;-144.05;71.45;56999.63;5092546;28;20093;-78
2024/01/25 01:15:03;;;;;;;38.85;7.63;;;;;;;-144.05;71.27;57025.13;5091798;28;20039;-80
2024/01/25 01:17:29;;;;;;;44.22;8.68;;;;;;;-144.05;73.17;56997.50;5091729;28;20064;-81
2024/01/25 01:19:56;;;;;;;32.80;7.82;;;;;;;-144.05;72.38;56980.53;5100663;28;20032;-82
2024/01/25 01:22:22;;;;;;;35.78;8.38;;;;;;;-144.05;72.18;56991.13;5092403;28;20063;-81
2024/01/25 01:24:49;;;;;;;41.65;8.02;;;;;;;-144.05;72.15;56976.28;5091813;28;20031;-79
2024/01/25 01:27:16;;;;;;;40.88;5.80;;;;;;;-144.05;71.34;56972.03;5092330;28;20020;-81
2024/01/25 01:29:42;;;;;;;37.72;8.43;;;;;;;-144.05;72.16;56976.28;5092413;28;20065;-81
2024/01/25 01:32:08;;;;;;;33.47;7.15;;;;;;;-144.05;71.69;56991.13;5092495;28;20047;-79
2024/01/25 01:34:34;;;;;;;39.05;8.05;;;;;;;-144.05;72.14;56986.91;5092268;28;20118;-80
2024/01/25 01:37:01;;;;;;;46.92;8.43;;;;;;;-144.05;72.30;56980.53;5093357;28;20501;-80
2024/01/25 01:39:27;;;;;;;42.22;7.28;;;;;;;-144.05;72.76;56989.00;5098277;28;20036;-79
2024/01/25 01:41:53;;;;;;;37.72;7.30;;;;;;;-144.05;72.11;56984.78;5101644;28;20115;-79
2024/01/25 01:44:20;;;;;;;34.05;6.72;;;;;;;-144.05;71.55;56980.53;5098567;28;20081;-83
2024/01/25 01:46:47;;;;;;;33.00;7.47;;;;;;;-144.05;71.91;56976.28;5100764;28;20049;-78
2024/01/25 01:49:14;;;;;;;31.48;6.13;;;8.20;99.90;;;-144.05;72.39;56978.41;5101771;28;20381;-80
2024/01/25 01:51:43;;;;;;;42.70;7.55;;;8.30;99.90;;;-144.05;72.12;56993.25;5093051;28;20028;-82
2024/01/25 01:54:10;;;;;;;36.13;6.75;;;7.90;99.90;;;-144.05;72.32;56986.91;5103138;28;20035;-82
2024/01/25 01:56:39;;;;;;;36.65;6.70;;;;;;;-144.05;71.92;56993.25;5104742;28;20555;-81
2024/01/25 01:59:10;;;;;;;36.53;7.18;;;8.30;99.90;;;-144.05;72.12;56980.53;5101333;28;20551;-81
2024/01/25 02:01:37;;;;;;;33.83;7.10;;;;;;;-144.05;72.64;56989.00;5093529;28;20036;-82
2024/01/25 02:04:05;;;;;;;40.65;7.38;;;7.90;99.90;;;-144.05;72.37;56963.53;5092991;28;20046;-78
2024/01/25 02:06:31;;;;;;;31.98;6.72;;;;;;;-144.05;72.09;56991.13;5092756;28;20032;-81
2024/01/25 02:09:01;;;;;;;33.63;6.45;;;;;;;-144.05;71.77;56961.41;5092391;28;20133;-80
2024/01/25 02:11:28;;;;;;;36.05;7.07;;;;;;;-144.05;72.12;56991.13;5114993;28;20027;-81
2024/01/25 02:13:54;;;;;;;39.60;7.68;;;;;;;-144.05;72.00;56993.25;5129855;28;20031;-80
2024/01/25 02:16:20;;;;;;;30.92;7.45;;;;;;;-144.05;71.86;56967.78;5130425;28;20057;-81
2024/01/25 02:18:47;;;;;;;32.08;7.18;;;4.60;99.90;;;-144.05;70.90;56989.00;5129709;28;20039;-80
2024/01/25 02:21:14;;;;;;;32.50;6.80;;;;;;;-144.05;71.50;56982.66;5115247;28;20137;-79
2024/01/25 02:23:40;;;;;;;33.15;6.95;;;;;;;-144.05;71.23;56980.53;5092338;28;20036;-81
2024/01/25 02:26:07;;;;;;;36.00;7.03;;;;;;;-144.05;71.96;56972.03;5091419;28;20024;-79
2024/01/25 02:28:34;;;;;;;31.75;6.90;;;;;;;-144.05;71.87;57010.25;5091483;28;20503;-80
2024/01/25 02:31:01;;;;;;;32.05;6.95;;;;;;;-144.05;71.65;57016.63;5091775;28;20036;-80
2024/01/25 02:33:28;;;;;;;30.25;7.47;;;;;;;-144.05;71.80;56986.91;5091685;28;20020;-80
2024/01/25 02:35:54;;;;;;;38.17;6.35;;;;;;;-144.05;71.67;56989.00;5091139;28;20435;-79
2024/01/25 02:38:20;;;;;;;35.95;6.60;;;;;;;-144.05;71.50;57010.25;5091344;28;20028;-79
2024/01/25 02:40:46;;;;;;;33.88;6.43;;;;;;;-144.05;71.75;56980.53;5102893;28;20043;-79
2024/01/25 02:43:12;;;;;;;37.88;6.50;;;8.90;99.90;;;-144.05;72.09;57001.75;5105555;28;20127;-79
2024/01/25 02:45:38;;;;;;;34.22;5.82;;;;;;;-144.05;72.26;56974.16;5105002;28;20532;-80
2024/01/25 02:48:05;;;;;;;41.45;7.57;;;;;;;-144.05;72.11;56980.53;5091748;28;20389;-81
2024/01/25 02:50:31;;;;;;;40.22;7.28;;;;;;;-144.05;72.73;56972.03;5091195;28;20024;-78
2024/01/25 02:52:58;;;;;;;33.22;6.28;;;;;;;-144.05;72.78;57001.75;5101032;28;20035;-80
2024/01/25 02:55:24;;;;;;;43.78;7.30;;;;;;;-144.05;72.91;56982.66;5097082;28;20660;-77
2024/01/25 02:57:50;;;;;;;39.33;7.25;;;;;;;-144.05;72.64;56991.13;5090697;28;20078;-80
2024/01/25 03:00:17;;;;;;;38.50;7.03;;;;;;;-144.05;72.96;56986.91;5090733;28;20051;-79
2024/01/25 03:02:43;;;;;;;33.17;7.07;;;;;;;-144.05;72.51;57014.50;5092678;28;20023;-80
2024/01/25 03:05:09;;;;;;;42.75;7.88;;;;;;;-144.05;72.64;57001.75;5094360;28;20063;-79
2024/01/25 03:07:35;;;;;;;37.75;6.07;;;;;;;-144.05;73.18;57006.00;5093407;28;20107;-80
2024/01/25 03:10:01;;;;;;;36.35;6.65;;;;;;;-144.05;73.89;56980.53;5094396;28;20023;-80
2024/01/25 03:12:28;;;;;;;35.63;6.55;;;;;;;-144.05;73.27;57008.13;5098516;28;20499;-79
2024/01/25 03:14:54;;;;;;;41.75;7.55;;;;;;;-144.05;73.09;57003.88;5095269;28;20100;-79
2024/01/25 03:17:21;;;;;;;37.15;8.13;;;;;;;-144.05;73.20;56967.78;5109116;28;20027;-82
2024/01/25 03:19:48;;;;;;;36.80;7.00;;;;;;;-144.05;73.28;56991.13;5106495;28;20020;-78
2024/01/25 03:22:14;;;;;;;37.58;6.25;;;;;;;-144.05;72.80;56993.25;5102051;28;20024;-78
2024/01/25 03:24:40;;;;;;;40.65;7.32;;;;;;;-144.05;73.08;57023.00;5093698;28;20089;-78
2024/01/25 03:27:13;;;;;;;34.00;5.65;;;;;;;-144.05;72.71;57016.63;5111125;28;20096;-80
2024/01/25 03:29:43;;;;;;;37.58;6.30;;;;;;;-144.05;73.66;56999.63;5094812;28;20489;-80
2024/01/25 03:32:10;;;;;;;27.83;6.30;;;7.20;99.90;;;-144.05;73.57;56986.91;5094439;28;20032;-79
2024/01/25 03:34:36;;;;;;;37.30;7.07;;;;;;;-144.05;73.62;56995.38;5119951;28;20016;-80
2024/01/25 03:37:03;;;;;;;46.10;8.18;;;;;;;-144.05;74.05;57020.88;5121582;28;20028;-80
2024/01/25 03:39:29;;;;;;;35.85;6.22;;;;;;;-144.05;73.69;56989.00;5094262;28;20024;-79
2024/01/25 03:41:55;;;;;;;31.05;6.65;;;;;;;-144.05;74.55;56991.13;5094388;28;20024;-79
2024/01/25 03:44:21;;;;;;;38.95;7.40;;;;;;;-144.05;75.33;56997.50;5092783;28;20020;-80
2024/01/25 03:46:48;;;;;;;41.15;8.25;;;;;;;-144.05;75.21;56976.28;5093906;28;20024;-79
2024/01/25 03:49:14;;;;;;;31.42;6.55;;;;;;;-144.05;75.03;56974.16;5092290;28;20485;-79
2024/01/25 03:51:40;;;;;;;40.30;6.88;;;;;;;-144.05;74.66;57012.38;5092585;28;20039;-78
2024/01/25 03:54:06;;;;;;;38.28;7.18;;;;;;;-144.05;74.88;56995.38;5094279;28;20045;-78
2024/01/25 03:56:33;;;;;;;36.15;7.55;;;;;;;-144.05;74.95;56999.63;5097905;28;20031;-79
2024/01/25 03:58:59;;;;;;;43.78;7.38;;;;;;;-144.05;76.37;57010.25;5092817;28;20118;-79
2024/01/25 04:01:25;;;;;;;36.00;6.45;;;;;;;-144.05;75.31;56993.25;5094542;28;20522;-80
2024/01/25 04:03:51;;;;;;;38.20;6.60;;;;;;;-144.05;75.71;56999.63;5092961;28;20032;-80
2024/01/25 04:06:17;;;;;;;42.38;6.63;;;;;;;-144.05;76.54;57014.50;5093935;28;20504;-78
2024/01/25 04:08:43;;;;;;;37.55;6.65;;;;;;;-144.05;76.61;57027.25;5093520;28;20027;-80
2024/01/25 04:11:10;;;;;;;39.38;7.47;;;;;;;-144.05;76.27;56982.66;5093421;28;20028;-79
2024/01/25 04:13:36;;;;;;;24.52;6.75;;;;;;;-144.05;76.48;56976.28;5091501;28;20489;-79
2024/01/25 04:16:03;;;;;;;42.53;7.15;;;;;;;-144.05;77.38;57003.88;5093040;28;20115;-78
2024/01/25 04:18:29;;;;;;;46.33;8.20;;;;;;;-144.05;77.36;57006.00;5093521;28;20520;-80
2024/01/25 04:20:55;;;;;;;36.42;6.18;;;;;;;-144.05;76.96;57025.13;5094978;28;20031;-77
2024/01/25 04:23:21;;;;;;;35.17;6.68;;;;;;;-144.05;77.76;57014.50;5100556;28;20038;-79
2024/01/25 04:25:48;;;;;;;37.33;7.07;;;;;;;-144.05;77.68;56997.50;5094126;28;20460;-80
2024/01/25 04:28:15;;;;;;;43.25;7.15;;;;;;;-144.05;77.40;56997.50;5092008;28;20027;-80
2024/01/25 04:30:41;;;;;;;30.90;6.60;;;;;;;-144.05;77.19;57001.75;5093116;28;20059;-80
2024/01/25 04:33:07;;;;;;;34.80;7.35;;;;;;;-144.05;77.74;57023.00;5102107;28;20020;-80
2024/01/25 04:35:33;;;;;;;34.35;6.70;;;;;;;-144.05;78.21;57016.63;5098465;28;20024;-82
2024/01/25 04:38:00;;;;;;;41.78;8.32;;;;;;;-144.05;79.22;56989.00;5096473;28;20024;-82
2024/01/25 04:40:26;;;;;;;37.85;6.55;;;;;;;-144.05;79.19;56980.53;5095351;28;20020;-80
2024/01/25 04:42:52;;;;;;;36.17;6.80;;;;;;;-144.05;77.54;57001.75;5100226;28;20024;-80
2024/01/25 04:45:18;;;;;;;40.10;8.00;;;;;;;-144.05;77.51;57027.25;5099793;28;20035;-80
2024/01/25 04:47:45;;;;;;;33.53;6.65;;;;;;;-144.05;77.74;56997.50;5091818;28;20039;-77
2024/01/25 04:50:11;;;;;;;47.88;7.53;;;;;;;-144.05;79.23;57014.50;5092404;28;20138;-78
2024/01/25 04:52:37;;;;;;;44.15;7.28;;;;;;;-144.05;78.53;57027.25;5091467;28;20028;-79
2024/01/25 04:55:03;;;;;;;44.42;7.32;;;;;;;-144.05;78.59;57020.88;5092134;28;20020;-79
2024/01/25 04:57:30;;;;;;;34.70;6.07;;;;;;;-144.05;77.96;56986.91;5091363;28;20028;-78
2024/01/25 04:59:56;;;;;;;41.40;7.95;;;;;;;-144.05;79.30;56999.63;5091240;28;20062;-79
2024/01/25 05:02:22;;;;;;;38.42;6.82;;;;;;;-144.05;78.85;57025.13;5093104;28;20024;-78
2024/01/25 05:04:48;;;;;;;49.05;7.43;;;;;;;-144.05;79.58;56997.50;5092629;28;20039;-80
2024/01/25 05:07:14;;;;;;;38.45;7.70;;;;;;;-144.05;79.68;56974.16;5093474;28;20051;-79
2024/01/25 05:09:41;;;;;;;36.40;6.80;;;;;;;-144.05;79.31;57016.63;5093128;28;20090;-80
2024/01/25 05:12:07;;;;;;;43.25;8.20;;;;;;;-144.05;79.94;56980.53;5093706;28;20437;-80
2024/01/25 05:14:33;;;;;;;45.38;6.75;;;;;;;-144.05;80.30;57014.50;5094660;28;20063;-79
2024/01/25 05:16:59;;;;;;;40.17;7.22;;;;;;;-144.05;79.98;56989.00;5093448;28;20039;-78
2024/01/25 05:19:25;;;;;;;37.67;6.50;;;;;;;-144.05;79.49;57008.13;5092888;28;20031;-82
2024/01/25 05:21:52;;;;;;;38.03;6.93;;;;;;;-144.05;80.58;56991.13;5100953;28;20540;-83
2024/01/25 05:24:18;;;;;;;30.33;5.22;;;;;;;-144.05;79.74;56991.13;5093469;28;20497;-81
2024/01/25 05:26:44;;;;;;;42.83;7.35;;;;;;;-144.05;80.75;57018.75;5092915;28;20047;-79
2024/01/25 05:29:10;;;;;;;51.25;6.97;;;;;;;-144.05;80.47;57001.75;5093605;28;20034;-81
2024/01/25 05:31:37;;;;;;;42.33;8.38;;;;;;;-144.05;80.29;57016.63;5092498;28;20496;-79
2024/01/25 05:34:03;;;;;;;45.78;7.93;;;;;;;-144.05;81.10;57033.63;5091793;28;20057;-77
2024/01/25 05:36:33;;;;;;;39.65;6.85;;;;;;;-144.05;81.71;57020.88;5094221;28;20051;-80
2024/01/25 05:38:59;;;;;;;43.25;7.72;;;;;;;-144.05;81.78;57003.88;5100987;28;20040;-80
2024/01/25 05:41:25;;;;;;;53.53;7.32;;;;;;;-144.05;81.21;57016.63;5111079;28;20051;-80
2024/01/25 05:43:51;;;;;;;33.42;6.63;;;;;;;-144.05;81.28;56989.00;5094210;28;20028;-79
2024/01/25 05:46:18;;;;;;;36.53;6.43;;;;;;;-144.05;81.03;57006.00;5091570;28;20069;-80
2024/01/25 05:48:44;;;;;;;42.15;7.47;;;;;;;-144.05;81.30;57003.88;5102231;28;20027;-79
2024/01/25 05:51:10;;;;;;;46.58;7.68;;;;;;;-144.05;82.91;57020.88;5098300;28;20020;-81
2024/01/25 05:53:37;;;;;;;39.95;7.25;;;;;;;-144.05;82.24;57023.00;5098086;28;20062;-77
2024/01/25 05:56:04;;;;;;;37.47;8.30;;;;;;;-144.05;82.55;57031.50;5093334;28;20104;-76
2024/01/25 05:58:31;;;;;;;42.72;7.35;;;;;;;-144.05;82.15;57012.38;5091370;28;20451;-81
2024/01/25 06:00:57;;;;;;;44.58;7.70;;;;;;;-144.05;81.79;57035.75;5092942;28;20020;-79
2024/01/25 06:03:23;;;;;;;39.65;7.68;;;;;;;-144.05;82.06;57016.63;5094668;28;20085;-77
2024/01/25 06:05:49;;;;;;;48.45;7.43;;;;;;;-144.05;82.29;57001.75;5101487;28;20043;-78
2024/01/25 06:08:15;;;;;;;43.45;8.55;;;;;;;-144.05;82.14;56999.63;5096536;28;20032;-78
2024/01/25 06:10:42;;;;;;;39.60;7.50;;;;;;;-144.05;81.83;57006.00;5090496;28;20077;-78
2024/01/25 06:13:09;;;;;;;53.83;8.55;;;;;;;-144.05;82.73;57006.00;5097047;28;20096;-80
2024/01/25 06:15:35;;;;;;;46.22;7.75;;;;;;;-144.05;82.72;57006.00;5092591;28;20134;-78
2024/01/25 06:18:03;;;;;;;45.28;7.63;;;;;;;-144.05;82.94;57042.13;5102495;28;20024;-79
2024/01/25 06:20:29;;;;;;;54.03;7.38;;;;;;;-144.05;83.36;57010.25;5101801;28;20019;-78
2024/01/25 06:22:55;;;;;;;48.20;8.75;;;;;;;-144.05;83.19;57001.75;5098084;28;20476;-79
2024/01/25 06:25:22;;;;;;;49.90;8.20;;;;;;;-144.05;82.75;57025.13;5116065;28;20073;-78
2024/01/25 06:27:48;;;;;;;35.05;6.35;;;;;;;-144.05;82.56;57008.13;5098331;28;20020;-79
2024/01/25 06:30:15;;;;;;;47.40;8.52;;;;;;;-144.05;82.78;57003.88;5092143;28;20108;-76
2024/01/25 06:32:42;;;;;;;37.60;6.75;;;4.80;99.90;;;-144.05;83.20;57027.25;5092287;28;20024;-78
2024/01/25 06:35:08;;;;;;;41.08;7.65;;;;;;;-144.05;83.13;57006.00;5092405;28;20028;-78
2024/01/25 06:37:34;;;;;;;51.10;7.90;;;;;;;-144.05;83.83;57027.25;5097787;28;20020;-79
2024/01/25 06:40:01;;;;;;;47.72;7.63;;;;;;;-144.05;83.39;57052.75;5106814;28;20437;-79
2024/01/25 06:42:27;;;;;;;61.78;8.65;;;;;;;-144.05;83.56;57008.13;5097088;28;20020;-79
2024/01/25 06:44:53;;;;;;;55.88;9.65;;;;;;;-144.05;83.41;57008.13;5099801;28;20015;-79
2024/01/25 06:47:19;;;;;;;58.17;9.50;;;;;;;-144.05;84.30;57027.25;5107756;28;20559;-81
2024/01/25 06:49:49;;;;;;;42.05;7.93;;;;;;;-144.05;83.63;57023.00;5104173;28;20066;-80
2024/01/25 06:52:15;;;;;;;48.17;8.95;;;;;;;-144.05;83.94;56995.38;5106972;28;20028;-80
2024/01/25 06:54:41;;;;;;;53.60;9.20;;;;;;;-144.05;84.22;57014.50;5099186;28;20081;-81
2024/01/25 06:57:07;;;;;;;48.33;9.23;;;;;;;-144.05;83.97;57016.63;5101437;28;20093;-80
2024/01/25 06:59:34;;;;;;;50.15;7.40;;;;;;;-144.05;83.81;57025.13;5101471;28;20111;-79
2024/01/25 07:02:02;;;;;;;55.88;8.13;;;;;;;-144.05;83.81;57008.13;5099194;28;20111;-79
2024/01/25 07:04:29;;;;;;;42.95;8.93;;;;;;;-144.05;84.27;56997.50;5111055;28;20032;-78
2024/01/25 07:06:55;;;;;;;53.92;8.32;;;;;;;-144.05;84.22;57040.00;5114213;28;20501;-80
2024/01/25 07:09:22;;;;;;;46.38;9.38;;;;;;;-144.05;84.61;57001.75;5101351;28;20027;-77
2024/01/25 07:11:48;;;;;;;58.03;9.10;;;;;;;-144.05;84.35;57001.75;5109677;28;20028;-78
2024/01/25 07:14:14;;;;;;;50.92;8.98;;;;;;;-144.05;83.82;57014.50;5104916;28;20032;-76
2024/01/25 07:16:40;;;;;;;48.03;9.48;;;;;;;-144.05;84.61;56995.38;5107433;28;20028;-79
2024/01/25 07:19:07;;;;;;;44.60;9.07;;;;;;;-144.05;84.37;57050.63;5107420;28;20020;-78
2024/01/25 07:21:33;;;;;;;43.58;9.45;;;;;;;-144.05;84.22;57012.38;5095474;28;20035;-77
2024/01/25 07:24:06;;;;;;;46.25;8.55;;;4.90;99.90;;;-144.05;84.20;57001.75;5104450;28;20111;-79
2024/01/25 07:26:32;;;;;;;39.35;8.55;;;;;;;-144.05;84.49;57035.75;5097687;28;20024;-77
2024/01/25 07:28:59;;;;;;;53.88;7.45;;;;;;;-144.05;84.29;57001.75;5097190;28;20031;-78
2024/01/25 07:31:28;;;;;;;47.47;8.48;;;4.90;99.90;;;-144.05;84.15;57012.38;5096596;28;20056;-79
2024/01/25 07:33:55;;;;;;;42.58;7.80;;;4.90;99.90;;;-144.05;83.89;57012.38;5097143;28;20028;-79
2024/01/25 07:36:21;;;;;;;60.78;10.50;;;;;;;-144.05;84.20;57014.50;5097099;28;20028;-80
2024/01/25 07:38:48;;;;;;;51.10;9.15;;;;;;;-144.05;85.06;57023.00;5098548;28;20024;-77
2024/01/25 07:41:15;;;;;;;45.30;9.10;;;;;;;-144.05;85.44;57018.75;5096267;28;20020;-79
2024/01/25 07:43:42;;;;;;;53.53;10.50;;;;;;;-144.05;84.86;57008.13;5097115;28;20031;-78
2024/01/25 07:46:10;;;;;;;61.05;10.05;;;;;;;-144.05;84.04;57023.00;5104589;28;20484;-78
2024/01/25 07:48:37;;;;;;;42.65;9.25;;;;;;;-144.05;84.74;57033.63;5096102;28;20032;-78
2024/01/25 07:51:11;;;;;;;60.70;11.57;;;;;;;-144.05;84.79;57010.25;5104495;28;20028;-77
2024/01/25 07:53:37;;;;;;;38.78;8.15;;;;;;;-144.05;84.35;57010.25;5097223;28;20026;-77
2024/01/25 07:56:05;;;;;;;45.72;9.80;;;;;;;-144.05;84.49;57016.63;5095263;28;20054;-74
2024/01/25 07:58:32;;;;;;;48.83;10.13;;;;;;;-144.05;84.95;57006.00;5102118;28;20052;-79
2024/01/25 08:00:58;;;;;;;51.53;9.32;;;;;;;-144.05;85.08;57014.50;5104011;28;20024;-78
2024/01/25 08:03:24;;;;;;;44.55;10.85;;;;;;;-144.05;85.03;57008.13;5101930;28;20028;-79
2024/01/25 08:05:51;;;;;;;51.28;10.23;;;;;;;-144.05;84.79;57014.50;5094763;28;20028;-77
2024/01/25 08:08:17;;;;;;;50.83;11.10;;;;;;;-144.05;83.81;56991.13;5095250;28;20099;-78
2024/01/25 08:10:45;;;;;;;57.03;10.13;;;;;;;-144.05;83.62;56974.16;5096923;28;20108;-79
2024/01/25 08:13:11;;;;;;;48.08;9.88;;;;;;;-144.05;84.04;57025.13;5095951;28;20073;-76
2024/01/25 08:15:38;;;;;;;45.05;10.43;;;;;;;-144.05;84.11;57003.88;5101901;28;20063;-76
2024/01/25 08:18:04;;;;;;;54.72;10.68;;;;;;;-144.05;84.01;57012.38;5098120;28;20024;-76
2024/01/25 08:20:31;;;;;;;44.75;10.00;;;;;;;-144.05;83.35;57016.63;5095607;28;20024;-78
2024/01/25 08:22:57;;;;;;;50.17;12.18;;;;;;;-144.05;83.70;57006.00;5098337;28;20112;-78
2024/01/25 08:25:23;;;;;;;56.35;10.57;;;;;;;-144.05;83.77;57018.75;5103605;27;20508;-78
2024/01/25 08:27:50;;;;;;;60.03;11.57;;;;;;;-144.05;84.11;56999.63;5094902;28;20028;-76
2024/01/25 08:30:16;;;;;;;40.17;10.70;;;;;;;-144.05;83.49;57008.13;5095496;28;20028;-78
2024/01/25 08:32:42;;;;;;;53.65;11.35;;;;;;;-144.05;82.93;56995.38;5094957;28;20017;-79
2024/01/25 08:35:09;;;;;;;52.30;11.68;;;;;;;-144.05;82.59;57008.13;5100745;28;20047;-76
2024/01/25 08:37:37;;;;;;;55.67;12.75;;;;;;;-144.05;83.29;57006.00;5099273;28;20031;-77
2024/01/25 08:40:06;;;;;;;50.63;12.43;;;;;;;-144.05;83.56;57001.75;5102490;28;20085;-77
2024/01/25 08:42:33;;;;;;;62.67;14.85;;;5.80;99.90;;;-144.05;83.38;57027.25;5094042;28;20035;-76
2024/01/25 08:44:59;;;;;;;47.42;11.38;;;;;;;-144.05;82.93;56984.78;5103495;28;20106;-79
2024/01/25 08:47:25;;;;;;;59.35;12.85;;;;;;;-144.05;83.52;57027.25;5094352;28;20529;-78
2024/01/25 08:49:51;;;;;;;45.70;12.25;;;;;;;-144.05;82.46;57001.75;5096503;28;20015;-81
2024/01/25 08:52:18;;;;;;;65.88;14.15;;;;;;;-144.05;82.36;57001.75;5096100;28;20120;-78
2024/01/25 08:54:44;;;;;;;42.25;12.82;;;;;;;-144.05;82.73;56995.38;5096508;28;20024;-76
2024/01/25 08:57:10;;;;;;;51.28;15.02;;;;;;;-144.05;82.27;57001.75;5099535;28;20043;-79
2024/01/25 08:59:37;;;;;;;46.47;13.27;;;;;;;-144.05;81.89;56984.78;5103737;28;20027;-77
2024/01/25 09:02:06;;;;;;;56.70;15.05;;;6.00;99.90;;;-144.05;81.81;56984.78;5094254;28;20453;-79
2024/01/25 09:04:32;;;;;;;60.17;14.95;;;;;;;-144.05;81.50;57020.88;5094637;28;20028;-79
2024/01/25 09:06:59;;;;;;;50.10;12.48;;;;;;;-144.05;81.14;56984.78;5093349;28;20016;-78
2024/01/25 09:09:26;;;;;;;50.75;13.77;;;;;;;-144.05;80.76;56976.28;5095896;28;20032;-78
2024/01/25 09:11:52;;;;;;;52.83;13.63;;;;;;;-144.05;80.12;56989.00;5104074;28;20035;-79
2024/01/25 09:14:18;;;;;;;53.70;13.32;;;;;;;-144.05;79.97;57001.75;5113711;28;20028;-80
2024/01/25 09:16:45;;;;;;;57.00;14.55;;;;;;;-144.05;79.74;57027.25;5093636;28;20065;-77
2024/01/25 09:19:11;;;;;;;63.65;14.88;;;;;;;-144.05;79.34;57001.75;5096815;28;20036;-77
2024/01/25 09:21:40;;;;;;;57.35;13.45;;;;;;;-144.05;78.49;56989.00;5112007;28;20080;-79
2024/01/25 09:24:07;;;;;;;42.80;12.50;;;6.50;99.90;;;-144.05;77.84;56999.63;5092718;28;20077;-78
2024/01/25 09:26:33;;;;;;;45.65;11.68;;;;;;;-144.05;77.36;56993.25;5104409;28;20049;-79
2024/01/25 09:29:00;;;;;;;45.05;13.40;;;;;;;-144.05;77.29;56984.78;5109694;28;20035;-78
2024/01/25 09:31:26;;;;;;;55.05;12.52;;;;;;;-144.05;77.21;57012.38;5092740;28;20024;-78
2024/01/25 09:33:52;;;;;;;48.95;13.88;;;;;;;-144.05;76.58;56989.00;5091480;28;20114;-77
2024/01/25 09:36:18;;;;;;;56.22;12.68;;;;;;;-144.05;77.19;56976.28;5097506;28;20503;-77
2024/01/25 09:38:44;;;;;;;51.47;13.77;;;;;;;-144.05;77.53;57001.75;5098761;28;20024;-78
2024/01/25 09:41:11;;;;;;;49.90;14.80;;;;;;;-144.05;76.82;56999.63;5101320;28;20035;-78
2024/01/25 09:43:37;;;;;;;48.13;12.77;;;;;;;-144.05;77.41;56982.66;5092631;28;20032;-76
2024/01/25 09:46:07;;;;;;;53.72;14.82;;;6.90;99.90;;;-144.05;76.86;56982.66;5105487;28;20024;-79
2024/01/25 09:48:33;;;;;;;48.33;13.13;;;;;;;-144.05;75.94;56967.78;5102781;28;20027;-76
2024/01/25 09:51:00;;;;;;;54.67;16.20;;;;;;;-144.05;76.46;56969.91;5097550;28;20409;-77
2024/01/25 09:53:27;;;;;;;50.53;14.05;;;;;;;-144.05;76.99;56984.78;5092547;28;20129;-76
2024/01/25 09:56:07;;;;;;;52.58;14.80;;;7.20;99.90;;;-144.05;77.12;56989.00;5093917;28;20024;-79
2024/01/25 09:58:45;;;;;;;53.33;15.45;;;7.30;99.90;;;-144.05;76.18;56982.66;5093858;28;20028;-80
2024/01/25 10:01:15;;;;;;;46.90;12.50;;;7.10;99.90;;;-144.05;76.51;56989.00;5097973;28;20481;-78
2024/01/25 10:03:48;;;;;;;51.88;17.15;;;7.30;99.90;;;-144.05;77.05;56965.66;5092693;28;20430;-78
2024/01/25 10:06:16;;;;;;;58.80;17.35;;;7.90;99.90;;;-144.05;76.62;56984.78;5095313;28;20342;-78
2024/01/25 10:08:44;;;;;;;47.10;16.60;;;;;;;-144.05;76.10;57003.88;5092194;28;20106;-76
2024/01/25 10:11:14;;;;;;;50.15;16.23;;;;;;;-144.05;76.02;57006.00;5094351;28;20070;-75
2024/01/25 10:13:50;;;;;;;55.97;18.83;;;7.40;99.90;;;-144.05;75.85;56976.28;5091933;28;20103;-78
2024/01/25 10:16:19;;;;;;;50.22;15.30;;;7.60;99.90;;;-144.05;74.79;56984.78;5092769;28;20032;-79
2024/01/25 10:18:47;;;;;;;59.45;17.15;;;7.40;99.90;;;-144.05;75.75;56967.78;5091586;28;20016;-77
2024/01/25 10:21:16;;;;;;;49.85;15.85;;;7.60;99.90;;;-144.05;75.88;56980.53;5098820;28;20028;-78
2024/01/25 10:23:47;;;;;;;57.38;16.10;;;7.30;99.90;;;-144.05;76.25;56997.50;5102005;28;20027;-78
2024/01/25 10:26:13;;;;;;;58.03;14.75;;;;;;;-144.05;75.96;56993.25;5094933;28;20028;-78
2024/01/25 10:28:39;;;;;;;57.30;14.85;;;;;;;-144.05;74.59;56997.50;5090485;28;20098;-78
2024/01/25 10:31:07;;;;;;;43.03;15.30;;;;;;;-144.05;73.80;56993.25;5090311;28;20103;-79
2024/01/25 10:33:33;;;;;;;48.35;15.48;;;;;;;-144.05;73.32;56963.53;5091854;28;20058;-79
2024/01/25 10:36:04;;;;;;;54.83;17.98;;;7.90;99.90;;;-144.05;73.49;56972.03;5089905;28;20400;-79
2024/01/25 10:38:40;;;;;;;50.97;14.85;;;8.00;99.90;;;-144.05;73.61;56965.66;5105095;28;20029;-78
2024/01/25 10:41:06;;;;;;;52.00;14.02;;;;;;;-144.05;73.66;56976.28;5094152;28;20377;-79
2024/01/25 10:43:33;;;;;;;49.50;14.57;;;8.20;99.90;;;-144.05;72.94;56961.41;5096799;28;20047;-81
2024/01/25 10:46:00;;;;;;;45.60;14.52;;;8.10;99.90;;;-144.05;72.86;56980.53;5095656;28;20038;-81
2024/01/25 10:48:28;;;;;;;53.97;14.32;;;8.00;99.90;;;-144.05;73.28;56978.41;5093721;28;20028;-79
2024/01/25 10:50:56;;;;;;;51.47;16.08;;;7.80;99.90;;;-144.05;73.29;56965.66;5094290;28;20024;-81
2024/01/25 10:53:24;;;;;;;51.15;14.98;;;8.00;99.90;;;-144.05;74.76;56997.50;5095370;28;20473;-80
2024/01/25 10:55:51;;;;;;;57.90;15.20;;;7.60;99.90;;;-144.05;75.42;56982.66;5093200;28;20028;-78